Terminal Aerodrome Forecast
Issued by NWS Memphis, TN

Home | Current Version | Previous Version | Text Only | Print | Product List | Glossary On
Versions: 1 2 3 4 5 6 7 8 9 10 11 12 13 14 15 16 17 18 19 20 21 22 23 24 25 26 27 28 29 30 31 32 33
205
FTUS44 KMEG 072328
TAFMEM
TAF
KMEM 072328Z 0800/0824 03012KT P6SM SCT030 BKN060
      TEMPO 0803/0807 OVC025
     FM081500 36012KT P6SM SCT060
     FM081800 34009KT P6SM BKN250=

USA.gov is the U.S. government's official web portal to all federal, state and local government web resources and services.